sensor_id;sensor_type;location;lat;lon;timestamp;P1;durP1;ratioP1;P2;durP2;ratioP2
78324;SDS011;67584;51.400;6.692;2023-09-19T00:00:20;5.22;;;2.65;;
78324;SDS011;67584;51.400;6.692;2023-09-19T00:02:55;6.20;;;2.88;;
78324;SDS011;67584;51.400;6.692;2023-09-19T00:05:22;6.88;;;2.67;;
78324;SDS011;67584;51.400;6.692;2023-09-19T00:07:52;7.53;;;2.83;;
78324;SDS011;67584;51.400;6.692;2023-09-19T00:10:19;8.60;;;2.45;;
78324;SDS011;67584;51.400;6.692;2023-09-19T00:12:54;15.07;;;2.97;;
78324;SDS011;67584;51.400;6.692;2023-09-19T00:15:21;6.32;;;3.00;;
78324;SDS011;67584;51.400;6.692;2023-09-19T00:17:51;8.98;;;2.42;;
78324;SDS011;67584;51.400;6.692;2023-09-19T00:20:20;4.05;;;2.38;;
78324;SDS011;67584;51.400;6.692;2023-09-19T00:22:48;8.02;;;2.70;;
78324;SDS011;67584;51.400;6.692;2023-09-19T00:25:19;5.55;;;2.80;;
78324;SDS011;67584;51.400;6.692;2023-09-19T00:27:45;6.65;;;2.58;;
78324;SDS011;67584;51.400;6.692;2023-09-19T00:30:16;12.48;;;2.80;;
78324;SDS011;67584;51.400;6.692;2023-09-19T00:32:49;9.75;;;2.38;;
78324;SDS011;67584;51.400;6.692;2023-09-19T00:35:20;6.65;;;2.55;;
78324;SDS011;67584;51.400;6.692;2023-09-19T00:37:49;6.50;;;2.38;;
78324;SDS011;67584;51.400;6.692;2023-09-19T00:40:14;6.20;;;3.20;;
78324;SDS011;67584;51.400;6.692;2023-09-19T00:42:41;6.47;;;2.72;;
78324;SDS011;67584;51.400;6.692;2023-09-19T00:45:07;4.53;;;1.95;;
78324;SDS011;67584;51.400;6.692;2023-09-19T00:47:37;5.18;;;2.50;;
78324;SDS011;67584;51.400;6.692;2023-09-19T00:50:05;6.55;;;2.92;;
78324;SDS011;67584;51.400;6.692;2023-09-19T00:52:35;10.05;;;3.22;;
78324;SDS011;67584;51.400;6.692;2023-09-19T00:55:07;7.75;;;2.65;;
78324;SDS011;67584;51.400;6.692;2023-09-19T00:57:34;5.95;;;2.55;;
78324;SDS011;67584;51.400;6.692;2023-09-19T01:00:02;5.43;;;2.17;;
78324;SDS011;67584;51.400;6.692;2023-09-19T01:02:33;5.88;;;2.13;;
78324;SDS011;67584;51.400;6.692;2023-09-19T01:04:59;6.63;;;2.50;;
78324;SDS011;67584;51.400;6.692;2023-09-19T01:07:29;6.90;;;2.42;;
78324;SDS011;67584;51.400;6.692;2023-09-19T01:09:56;6.60;;;2.15;;
78324;SDS011;67584;51.400;6.692;2023-09-19T01:15:06;4.38;;;2.10;;
78324;SDS011;67584;51.400;6.692;2023-09-19T01:17:53;8.05;;;2.38;;
78324;SDS011;67584;51.400;6.692;2023-09-19T01:23:14;4.68;;;1.70;;
78324;SDS011;67584;51.400;6.692;2023-09-19T01:28:31;7.82;;;3.13;;
78324;SDS011;67584;51.400;6.692;2023-09-19T01:31:09;5.90;;;2.20;;
78324;SDS011;67584;51.400;6.692;2023-09-19T01:36:22;8.10;;;2.20;;
78324;SDS011;67584;51.400;6.692;2023-09-19T01:38:49;6.40;;;2.42;;
78324;SDS011;67584;51.400;6.692;2023-09-19T01:41:20;5.25;;;2.67;;
78324;SDS011;67584;51.400;6.692;2023-09-19T01:43:54;6.93;;;2.45;;
78324;SDS011;67584;51.400;6.692;2023-09-19T01:46:24;6.30;;;2.20;;
78324;SDS011;67584;51.400;6.692;2023-09-19T01:49:03;4.03;;;2.10;;
78324;SDS011;67584;51.400;6.692;2023-09-19T01:51:37;7.93;;;2.53;;
78324;SDS011;67584;51.400;6.692;2023-09-19T01:54:26;6.18;;;2.53;;
78324;SDS011;67584;51.400;6.692;2023-09-19T02:00:09;5.30;;;2.75;;
78324;SDS011;67584;51.400;6.692;2023-09-19T02:02:40;3.78;;;2.00;;
78324;SDS011;67584;51.400;6.692;2023-09-19T02:05:10;6.47;;;2.33;;
78324;SDS011;67584;51.400;6.692;2023-09-19T02:07:37;6.88;;;2.42;;
78324;SDS011;67584;51.400;6.692;2023-09-19T02:10:06;5.57;;;2.47;;
78324;SDS011;67584;51.400;6.692;2023-09-19T02:12:35;4.78;;;3.03;;
78324;SDS011;67584;51.400;6.692;2023-09-19T02:15:02;6.40;;;2.72;;
78324;SDS011;67584;51.400;6.692;2023-09-19T02:17:28;6.10;;;2.28;;
78324;SDS011;67584;51.400;6.692;2023-09-19T02:19:56;6.95;;;2.30;;
78324;SDS011;67584;51.400;6.692;2023-09-19T02:22:22;11.55;;;3.17;;
78324;SDS011;67584;51.400;6.692;2023-09-19T02:24:48;9.80;;;2.40;;
78324;SDS011;67584;51.400;6.692;2023-09-19T02:27:13;7.70;;;2.22;;
78324;SDS011;67584;51.400;6.692;2023-09-19T02:29:44;8.00;;;2.05;;
78324;SDS011;67584;51.400;6.692;2023-09-19T02:32:09;4.90;;;2.60;;
78324;SDS011;67584;51.400;6.692;2023-09-19T02:34:35;6.97;;;2.38;;
78324;SDS011;67584;51.400;6.692;2023-09-19T02:37:07;6.20;;;1.95;;
78324;SDS011;67584;51.400;6.692;2023-09-19T02:39:38;4.68;;;2.30;;
78324;SDS011;67584;51.400;6.692;2023-09-19T02:42:04;4.32;;;2.70;;
78324;SDS011;67584;51.400;6.692;2023-09-19T02:44:30;5.00;;;2.22;;
78324;SDS011;67584;51.400;6.692;2023-09-19T02:46:56;6.38;;;2.08;;
78324;SDS011;67584;51.400;6.692;2023-09-19T02:49:22;6.15;;;2.72;;
78324;SDS011;67584;51.400;6.692;2023-09-19T02:51:48;6.50;;;2.60;;
78324;SDS011;67584;51.400;6.692;2023-09-19T02:54:14;6.20;;;2.97;;
78324;SDS011;67584;51.400;6.692;2023-09-19T02:56:41;6.35;;;2.45;;
78324;SDS011;67584;51.400;6.692;2023-09-19T02:59:06;4.32;;;2.45;;
78324;SDS011;67584;51.400;6.692;2023-09-19T03:01:35;6.95;;;2.90;;
78324;SDS011;67584;51.400;6.692;2023-09-19T03:04:03;9.00;;;2.67;;
78324;SDS011;67584;51.400;6.692;2023-09-19T03:06:32;4.57;;;1.73;;
78324;SDS011;67584;51.400;6.692;2023-09-19T03:08:58;6.50;;;2.28;;
78324;SDS011;67584;51.400;6.692;2023-09-19T03:11:25;6.10;;;2.63;;
78324;SDS011;67584;51.400;6.692;2023-09-19T03:13:55;8.65;;;3.67;;
78324;SDS011;67584;51.400;6.692;2023-09-19T03:16:21;6.05;;;2.20;;
78324;SDS011;67584;51.400;6.692;2023-09-19T03:18:49;6.53;;;2.60;;
78324;SDS011;67584;51.400;6.692;2023-09-19T03:21:16;6.90;;;2.25;;
78324;SDS011;67584;51.400;6.692;2023-09-19T03:23:43;5.18;;;2.15;;
78324;SDS011;67584;51.400;6.692;2023-09-19T03:26:12;10.90;;;2.50;;
78324;SDS011;67584;51.400;6.692;2023-09-19T03:28:41;10.80;;;2.30;;
78324;SDS011;67584;51.400;6.692;2023-09-19T03:31:08;9.25;;;2.90;;
78324;SDS011;67584;51.400;6.692;2023-09-19T03:33:35;5.45;;;2.30;;
78324;SDS011;67584;51.400;6.692;2023-09-19T03:36:02;5.43;;;2.13;;
78324;SDS011;67584;51.400;6.692;2023-09-19T03:38:30;5.47;;;2.35;;
78324;SDS011;67584;51.400;6.692;2023-09-19T03:40:56;4.55;;;2.63;;
78324;SDS011;67584;51.400;6.692;2023-09-19T03:43:22;7.13;;;2.30;;
78324;SDS011;67584;51.400;6.692;2023-09-19T03:45:48;8.07;;;2.58;;
78324;SDS011;67584;51.400;6.692;2023-09-19T03:48:14;8.40;;;3.08;;
78324;SDS011;67584;51.400;6.692;2023-09-19T03:50:40;7.65;;;2.63;;
78324;SDS011;67584;51.400;6.692;2023-09-19T03:53:06;8.13;;;3.80;;
78324;SDS011;67584;51.400;6.692;2023-09-19T03:55:35;6.72;;;3.15;;
78324;SDS011;67584;51.400;6.692;2023-09-19T03:58:01;9.63;;;2.75;;
78324;SDS011;67584;51.400;6.692;2023-09-19T04:00:27;7.38;;;2.70;;
78324;SDS011;67584;51.400;6.692;2023-09-19T04:02:54;9.05;;;2.38;;
78324;SDS011;67584;51.400;6.692;2023-09-19T04:05:22;8.20;;;2.50;;
78324;SDS011;67584;51.400;6.692;2023-09-19T04:07:48;8.07;;;2.80;;
78324;SDS011;67584;51.400;6.692;2023-09-19T04:10:15;7.47;;;3.30;;
78324;SDS011;67584;51.400;6.692;2023-09-19T04:12:49;10.95;;;4.00;;
78324;SDS011;67584;51.400;6.692;2023-09-19T04:15:18;14.75;;;5.70;;
78324;SDS011;67584;51.400;6.692;2023-09-19T04:17:44;10.77;;;4.20;;
78324;SDS011;67584;51.400;6.692;2023-09-19T04:20:10;11.88;;;4.00;;
78324;SDS011;67584;51.400;6.692;2023-09-19T04:22:38;10.73;;;4.68;;
78324;SDS011;67584;51.400;6.692;2023-09-19T04:25:04;10.02;;;3.85;;
78324;SDS011;67584;51.400;6.692;2023-09-19T04:27:32;8.02;;;3.90;;
78324;SDS011;67584;51.400;6.692;2023-09-19T04:29:59;10.00;;;3.67;;
78324;SDS011;67584;51.400;6.692;2023-09-19T04:32:28;8.90;;;3.50;;
78324;SDS011;67584;51.400;6.692;2023-09-19T04:34:54;12.77;;;3.95;;
78324;SDS011;67584;51.400;6.692;2023-09-19T04:37:24;9.25;;;3.35;;
78324;SDS011;67584;51.400;6.692;2023-09-19T04:39:50;8.45;;;4.13;;
78324;SDS011;67584;51.400;6.692;2023-09-19T04:42:16;8.05;;;3.08;;
78324;SDS011;67584;51.400;6.692;2023-09-19T04:44:42;9.80;;;3.00;;
78324;SDS011;67584;51.400;6.692;2023-09-19T04:47:08;9.77;;;3.95;;
78324;SDS011;67584;51.400;6.692;2023-09-19T04:49:34;9.52;;;4.35;;
78324;SDS011;67584;51.400;6.692;2023-09-19T04:52:00;10.95;;;4.60;;
78324;SDS011;67584;51.400;6.692;2023-09-19T04:54:25;12.25;;;4.43;;
78324;SDS011;67584;51.400;6.692;2023-09-19T04:56:52;13.38;;;3.85;;
78324;SDS011;67584;51.400;6.692;2023-09-19T04:59:18;6.10;;;3.13;;
78324;SDS011;67584;51.400;6.692;2023-09-19T05:01:43;8.70;;;3.88;;
78324;SDS011;67584;51.400;6.692;2023-09-19T05:04:09;10.13;;;3.90;;
78324;SDS011;67584;51.400;6.692;2023-09-19T05:06:35;8.90;;;4.15;;
78324;SDS011;67584;51.400;6.692;2023-09-19T05:09:00;16.08;;;3.88;;
78324;SDS011;67584;51.400;6.692;2023-09-19T05:11:26;10.68;;;3.97;;
78324;SDS011;67584;51.400;6.692;2023-09-19T05:13:55;6.05;;;3.17;;
78324;SDS011;67584;51.400;6.692;2023-09-19T05:16:21;11.77;;;3.75;;
78324;SDS011;67584;51.400;6.692;2023-09-19T05:18:47;7.53;;;2.88;;
78324;SDS011;67584;51.400;6.692;2023-09-19T05:21:14;9.02;;;3.15;;
78324;SDS011;67584;51.400;6.692;2023-09-19T05:23:40;8.02;;;2.97;;
78324;SDS011;67584;51.400;6.692;2023-09-19T05:26:06;11.13;;;4.28;;
78324;SDS011;67584;51.400;6.692;2023-09-19T05:28:31;6.53;;;2.92;;
78324;SDS011;67584;51.400;6.692;2023-09-19T05:31:02;5.97;;;2.78;;
78324;SDS011;67584;51.400;6.692;2023-09-19T05:33:28;7.63;;;2.75;;
78324;SDS011;67584;51.400;6.692;2023-09-19T05:35:56;5.88;;;3.03;;
78324;SDS011;67584;51.400;6.692;2023-09-19T05:38:21;9.18;;;2.47;;
78324;SDS011;67584;51.400;6.692;2023-09-19T05:40:47;8.32;;;2.55;;
78324;SDS011;67584;51.400;6.692;2023-09-19T05:43:13;7.18;;;2.28;;
78324;SDS011;67584;51.400;6.692;2023-09-19T05:48:11;5.40;;;2.60;;
78324;SDS011;67584;51.400;6.692;2023-09-19T05:50:41;8.70;;;2.40;;
78324;SDS011;67584;51.400;6.692;2023-09-19T05:53:07;5.65;;;2.60;;
78324;SDS011;67584;51.400;6.692;2023-09-19T05:55:37;5.40;;;2.72;;
78324;SDS011;67584;51.400;6.692;2023-09-19T05:58:02;5.50;;;2.25;;
78324;SDS011;67584;51.400;6.692;2023-09-19T06:00:29;4.10;;;1.88;;
78324;SDS011;67584;51.400;6.692;2023-09-19T06:02:55;5.68;;;2.53;;
78324;SDS011;67584;51.400;6.692;2023-09-19T06:05:22;5.00;;;1.90;;
78324;SDS011;67584;51.400;6.692;2023-09-19T06:07:48;5.68;;;2.47;;
78324;SDS011;67584;51.400;6.692;2023-09-19T06:10:15;9.80;;;2.58;;
78324;SDS011;67584;51.400;6.692;2023-09-19T06:12:42;9.88;;;2.83;;
78324;SDS011;67584;51.400;6.692;2023-09-19T06:15:14;10.30;;;2.13;;
78324;SDS011;67584;51.400;6.692;2023-09-19T06:17:47;4.40;;;1.90;;
78324;SDS011;67584;51.400;6.692;2023-09-19T06:20:14;6.32;;;2.22;;
78324;SDS011;67584;51.400;6.692;2023-09-19T06:22:42;8.40;;;2.25;;
78324;SDS011;67584;51.400;6.692;2023-09-19T06:25:12;7.18;;;2.05;;
78324;SDS011;67584;51.400;6.692;2023-09-19T06:27:51;4.75;;;2.50;;
78324;SDS011;67584;51.400;6.692;2023-09-19T06:30:18;7.50;;;2.38;;
78324;SDS011;67584;51.400;6.692;2023-09-19T06:32:45;6.38;;;1.95;;
78324;SDS011;67584;51.400;6.692;2023-09-19T06:35:11;6.07;;;2.40;;
78324;SDS011;67584;51.400;6.692;2023-09-19T06:37:38;7.32;;;2.30;;
78324;SDS011;67584;51.400;6.692;2023-09-19T06:40:06;4.85;;;2.13;;
78324;SDS011;67584;51.400;6.692;2023-09-19T06:42:46;5.85;;;2.80;;
78324;SDS011;67584;51.400;6.692;2023-09-19T06:45:15;7.03;;;2.60;;
78324;SDS011;67584;51.400;6.692;2023-09-19T06:47:44;6.03;;;3.03;;
78324;SDS011;67584;51.400;6.692;2023-09-19T06:50:17;9.77;;;2.60;;
78324;SDS011;67584;51.400;6.692;2023-09-19T06:52:44;7.45;;;2.63;;
78324;SDS011;67584;51.400;6.692;2023-09-19T06:55:11;9.20;;;2.88;;
78324;SDS011;67584;51.400;6.692;2023-09-19T06:57:38;8.15;;;3.47;;
78324;SDS011;67584;51.400;6.692;2023-09-19T07:00:08;13.88;;;2.90;;
78324;SDS011;67584;51.400;6.692;2023-09-19T07:02:44;7.93;;;3.28;;
78324;SDS011;67584;51.400;6.692;2023-09-19T07:05:10;12.30;;;3.33;;
78324;SDS011;67584;51.400;6.692;2023-09-19T07:07:36;8.32;;;4.03;;
78324;SDS011;67584;51.400;6.692;2023-09-19T07:10:02;9.25;;;3.20;;
78324;SDS011;67584;51.400;6.692;2023-09-19T07:12:30;9.48;;;3.67;;
78324;SDS011;67584;51.400;6.692;2023-09-19T07:14:58;12.30;;;4.13;;
78324;SDS011;67584;51.400;6.692;2023-09-19T07:17:23;12.85;;;4.07;;
78324;SDS011;67584;51.400;6.692;2023-09-19T07:19:49;10.07;;;3.75;;
78324;SDS011;67584;51.400;6.692;2023-09-19T07:22:15;12.82;;;3.83;;
78324;SDS011;67584;51.400;6.692;2023-09-19T07:24:41;9.05;;;2.85;;
78324;SDS011;67584;51.400;6.692;2023-09-19T07:27:07;11.45;;;3.35;;
78324;SDS011;67584;51.400;6.692;2023-09-19T07:29:34;12.50;;;3.50;;
78324;SDS011;67584;51.400;6.692;2023-09-19T07:31:59;8.60;;;3.10;;
78324;SDS011;67584;51.400;6.692;2023-09-19T07:34:25;8.63;;;2.92;;
78324;SDS011;67584;51.400;6.692;2023-09-19T07:36:51;11.18;;;4.72;;
78324;SDS011;67584;51.400;6.692;2023-09-19T07:39:16;12.30;;;3.17;;
78324;SDS011;67584;51.400;6.692;2023-09-19T07:41:42;7.03;;;3.00;;
78324;SDS011;67584;51.400;6.692;2023-09-19T07:44:08;6.90;;;2.92;;
78324;SDS011;67584;51.400;6.692;2023-09-19T07:46:35;9.65;;;3.20;;
78324;SDS011;67584;51.400;6.692;2023-09-19T07:49:01;6.80;;;2.58;;
78324;SDS011;67584;51.400;6.692;2023-09-19T07:51:27;8.23;;;3.00;;
78324;SDS011;67584;51.400;6.692;2023-09-19T07:53:53;10.07;;;3.55;;
78324;SDS011;67584;51.400;6.692;2023-09-19T07:56:20;6.57;;;2.78;;
78324;SDS011;67584;51.400;6.692;2023-09-19T07:58:46;7.55;;;2.53;;
78324;SDS011;67584;51.400;6.692;2023-09-19T08:01:12;7.82;;;2.67;;
78324;SDS011;67584;51.400;6.692;2023-09-19T08:03:39;8.38;;;2.47;;
78324;SDS011;67584;51.400;6.692;2023-09-19T08:06:09;7.50;;;3.17;;
78324;SDS011;67584;51.400;6.692;2023-09-19T08:08:35;8.88;;;2.60;;
78324;SDS011;67584;51.400;6.692;2023-09-19T08:11:02;9.10;;;2.83;;
78324;SDS011;67584;51.400;6.692;2023-09-19T08:13:46;8.38;;;3.80;;
78324;SDS011;67584;51.400;6.692;2023-09-19T08:16:14;11.40;;;2.88;;
78324;SDS011;67584;51.400;6.692;2023-09-19T08:18:40;9.63;;;3.28;;
78324;SDS011;67584;51.400;6.692;2023-09-19T08:21:06;5.78;;;2.85;;
78324;SDS011;67584;51.400;6.692;2023-09-19T08:23:35;10.85;;;3.50;;
78324;SDS011;67584;51.400;6.692;2023-09-19T08:26:04;8.57;;;3.33;;
78324;SDS011;67584;51.400;6.692;2023-09-19T08:28:33;9.35;;;2.72;;
78324;SDS011;67584;51.400;6.692;2023-09-19T08:31:02;9.75;;;4.00;;
78324;SDS011;67584;51.400;6.692;2023-09-19T08:33:35;5.75;;;2.38;;
78324;SDS011;67584;51.400;6.692;2023-09-19T08:36:02;6.22;;;2.67;;
78324;SDS011;67584;51.400;6.692;2023-09-19T08:38:32;5.22;;;2.13;;
78324;SDS011;67584;51.400;6.692;2023-09-19T08:41:00;8.95;;;2.72;;
78324;SDS011;67584;51.400;6.692;2023-09-19T08:43:29;9.27;;;3.80;;
78324;SDS011;67584;51.400;6.692;2023-09-19T08:46:03;8.82;;;2.75;;
78324;SDS011;67584;51.400;6.692;2023-09-19T08:49:03;4.32;;;2.10;;
78324;SDS011;67584;51.400;6.692;2023-09-19T08:51:53;7.00;;;2.85;;
78324;SDS011;67584;51.400;6.692;2023-09-19T08:54:28;8.38;;;2.50;;
78324;SDS011;67584;51.400;6.692;2023-09-19T08:57:00;6.80;;;3.30;;
78324;SDS011;67584;51.400;6.692;2023-09-19T08:59:33;4.43;;;2.20;;
78324;SDS011;67584;51.400;6.692;2023-09-19T09:02:00;8.15;;;3.35;;
78324;SDS011;67584;51.400;6.692;2023-09-19T09:04:29;11.07;;;2.50;;
78324;SDS011;67584;51.400;6.692;2023-09-19T09:06:56;8.25;;;3.95;;
78324;SDS011;67584;51.400;6.692;2023-09-19T09:09:23;6.07;;;2.60;;
78324;SDS011;67584;51.400;6.692;2023-09-19T09:11:49;10.55;;;2.53;;
78324;SDS011;67584;51.400;6.692;2023-09-19T09:14:18;8.90;;;2.63;;
78324;SDS011;67584;51.400;6.692;2023-09-19T09:19:13;6.18;;;2.70;;
78324;SDS011;67584;51.400;6.692;2023-09-19T09:21:45;6.32;;;3.20;;
78324;SDS011;67584;51.400;6.692;2023-09-19T09:25:13;7.18;;;2.88;;
78324;SDS011;67584;51.400;6.692;2023-09-19T09:27:18;8.25;;;3.10;;
78324;SDS011;67584;51.400;6.692;2023-09-19T09:29:45;7.68;;;3.10;;
78324;SDS011;67584;51.400;6.692;2023-09-19T09:32:27;7.60;;;2.65;;
78324;SDS011;67584;51.400;6.692;2023-09-19T09:34:57;4.95;;;2.65;;
78324;SDS011;67584;51.400;6.692;2023-09-19T09:37:24;4.85;;;2.22;;
78324;SDS011;67584;51.400;6.692;2023-09-19T09:40:02;7.80;;;2.42;;
78324;SDS011;67584;51.400;6.692;2023-09-19T09:42:39;6.65;;;2.55;;
78324;SDS011;67584;51.400;6.692;2023-09-19T09:45:16;4.50;;;2.38;;
78324;SDS011;67584;51.400;6.692;2023-09-19T09:47:48;7.15;;;3.10;;
78324;SDS011;67584;51.400;6.692;2023-09-19T09:50:30;7.50;;;2.35;;
78324;SDS011;67584;51.400;6.692;2023-09-19T09:53:25;7.22;;;2.88;;
78324;SDS011;67584;51.400;6.692;2023-09-19T09:56:01;7.57;;;3.05;;
78324;SDS011;67584;51.400;6.692;2023-09-19T09:58:31;6.68;;;2.72;;
78324;SDS011;67584;51.400;6.692;2023-09-19T10:01:02;5.28;;;2.42;;
78324;SDS011;67584;51.400;6.692;2023-09-19T10:03:37;6.47;;;2.42;;
78324;SDS011;67584;51.400;6.692;2023-09-19T10:06:13;6.10;;;2.50;;
78324;SDS011;67584;51.400;6.692;2023-09-19T10:11:40;5.47;;;2.15;;
78324;SDS011;67584;51.400;6.692;2023-09-19T10:14:11;6.65;;;2.10;;
78324;SDS011;67584;51.400;6.692;2023-09-19T10:16:40;9.60;;;3.10;;
78324;SDS011;67584;51.400;6.692;2023-09-19T10:19:29;5.60;;;3.08;;
78324;SDS011;67584;51.400;6.692;2023-09-19T10:22:01;7.78;;;2.58;;
78324;SDS011;67584;51.400;6.692;2023-09-19T10:24:29;5.97;;;2.38;;
78324;SDS011;67584;51.400;6.692;2023-09-19T10:26:56;7.88;;;2.92;;
78324;SDS011;67584;51.400;6.692;2023-09-19T10:29:24;6.30;;;2.53;;
78324;SDS011;67584;51.400;6.692;2023-09-19T10:31:54;7.30;;;2.28;;
78324;SDS011;67584;51.400;6.692;2023-09-19T10:34:23;5.63;;;2.28;;
78324;SDS011;67584;51.400;6.692;2023-09-19T10:36:51;6.97;;;2.80;;
78324;SDS011;67584;51.400;6.692;2023-09-19T10:39:17;5.28;;;2.50;;
78324;SDS011;67584;51.400;6.692;2023-09-19T10:41:47;7.70;;;2.25;;
78324;SDS011;67584;51.400;6.692;2023-09-19T10:44:21;5.63;;;2.50;;
78324;SDS011;67584;51.400;6.692;2023-09-19T10:46:51;10.02;;;2.45;;
78324;SDS011;67584;51.400;6.692;2023-09-19T10:49:18;5.03;;;2.38;;
78324;SDS011;67584;51.400;6.692;2023-09-19T10:51:47;4.03;;;2.83;;
78324;SDS011;67584;51.400;6.692;2023-09-19T10:54:17;5.43;;;2.45;;
78324;SDS011;67584;51.400;6.692;2023-09-19T10:56:47;5.43;;;2.05;;
78324;SDS011;67584;51.400;6.692;2023-09-19T10:59:19;7.70;;;3.00;;
78324;SDS011;67584;51.400;6.692;2023-09-19T11:01:55;5.70;;;2.78;;
78324;SDS011;67584;51.400;6.692;2023-09-19T11:04:32;4.38;;;2.30;;
78324;SDS011;67584;51.400;6.692;2023-09-19T11:09:49;11.38;;;2.47;;
78324;SDS011;67584;51.400;6.692;2023-09-19T11:13:09;4.90;;;2.20;;
78324;SDS011;67584;51.400;6.692;2023-09-19T11:16:02;5.53;;;2.42;;
78324;SDS011;67584;51.400;6.692;2023-09-19T11:26:49;4.05;;;2.47;;
78324;SDS011;67584;51.400;6.692;2023-09-19T11:29:24;6.97;;;2.30;;
78324;SDS011;67584;51.400;6.692;2023-09-19T11:31:57;5.45;;;2.55;;
78324;SDS011;67584;51.400;6.692;2023-09-19T11:39:39;6.60;;;2.50;;
78324;SDS011;67584;51.400;6.692;2023-09-19T11:48:15;6.30;;;2.55;;
78324;SDS011;67584;51.400;6.692;2023-09-19T11:50:44;6.32;;;2.47;;
78324;SDS011;67584;51.400;6.692;2023-09-19T11:53:12;5.68;;;2.15;;
78324;SDS011;67584;51.400;6.692;2023-09-19T11:55:39;7.00;;;2.90;;
78324;SDS011;67584;51.400;6.692;2023-09-19T11:58:08;3.78;;;2.03;;
78324;SDS011;67584;51.400;6.692;2023-09-19T12:00:37;4.95;;;2.85;;
78324;SDS011;67584;51.400;6.692;2023-09-19T12:03:09;4.45;;;2.20;;
78324;SDS011;67584;51.400;6.692;2023-09-19T12:05:36;4.82;;;2.53;;
78324;SDS011;67584;51.400;6.692;2023-09-19T12:08:05;6.15;;;2.47;;
78324;SDS011;67584;51.400;6.692;2023-09-19T12:10:45;7.63;;;2.20;;
78324;SDS011;67584;51.400;6.692;2023-09-19T12:13:15;6.45;;;2.58;;
78324;SDS011;67584;51.400;6.692;2023-09-19T12:15:43;6.03;;;2.38;;
78324;SDS011;67584;51.400;6.692;2023-09-19T12:18:38;4.75;;;2.47;;
78324;SDS011;67584;51.400;6.692;2023-09-19T12:21:05;5.57;;;2.30;;
78324;SDS011;67584;51.400;6.692;2023-09-19T12:23:32;5.95;;;1.95;;
78324;SDS011;67584;51.400;6.692;2023-09-19T12:26:02;8.95;;;2.20;;
78324;SDS011;67584;51.400;6.692;2023-09-19T12:28:38;4.30;;;2.45;;
78324;SDS011;67584;51.400;6.692;2023-09-19T12:31:07;5.13;;;2.35;;
78324;SDS011;67584;51.400;6.692;2023-09-19T12:33:33;5.68;;;2.28;;
78324;SDS011;67584;51.400;6.692;2023-09-19T12:36:00;6.47;;;2.35;;
78324;SDS011;67584;51.400;6.692;2023-09-19T12:38:47;5.38;;;2.42;;
78324;SDS011;67584;51.400;6.692;2023-09-19T12:41:14;5.55;;;2.35;;
78324;SDS011;67584;51.400;6.692;2023-09-19T12:43:40;6.28;;;2.80;;
78324;SDS011;67584;51.400;6.692;2023-09-19T12:46:07;5.70;;;2.60;;
78324;SDS011;67584;51.400;6.692;2023-09-19T12:48:33;3.40;;;1.92;;
78324;SDS011;67584;51.400;6.692;2023-09-19T12:53:30;4.05;;;2.20;;
78324;SDS011;67584;51.400;6.692;2023-09-19T12:56:03;7.43;;;2.65;;
78324;SDS011;67584;51.400;6.692;2023-09-19T12:58:33;5.97;;;2.15;;
78324;SDS011;67584;51.400;6.692;2023-09-19T13:01:00;5.72;;;2.08;;
78324;SDS011;67584;51.400;6.692;2023-09-19T13:03:30;5.00;;;2.70;;
78324;SDS011;67584;51.400;6.692;2023-09-19T13:06:01;4.97;;;2.20;;
78324;SDS011;67584;51.400;6.692;2023-09-19T13:11:16;5.22;;;2.22;;
78324;SDS011;67584;51.400;6.692;2023-09-19T13:13:50;4.93;;;2.00;;
78324;SDS011;67584;51.400;6.692;2023-09-19T13:16:52;4.57;;;2.30;;
78324;SDS011;67584;51.400;6.692;2023-09-19T13:25:10;3.50;;;1.88;;
78324;SDS011;67584;51.400;6.692;2023-09-19T13:27:47;6.72;;;2.20;;
78324;SDS011;67584;51.400;6.692;2023-09-19T13:30:16;5.03;;;2.22;;
78324;SDS011;67584;51.400;6.692;2023-09-19T13:32:43;3.63;;;1.70;;
78324;SDS011;67584;51.400;6.692;2023-09-19T13:35:09;5.20;;;2.13;;
78324;SDS011;67584;51.400;6.692;2023-09-19T13:37:35;3.88;;;2.17;;
78324;SDS011;67584;51.400;6.692;2023-09-19T13:40:06;4.50;;;1.77;;
78324;SDS011;67584;51.400;6.692;2023-09-19T13:42:33;4.07;;;1.83;;
78324;SDS011;67584;51.400;6.692;2023-09-19T13:44:59;4.00;;;1.90;;
78324;SDS011;67584;51.400;6.692;2023-09-19T13:47:25;3.08;;;1.73;;
78324;SDS011;67584;51.400;6.692;2023-09-19T13:49:52;5.57;;;1.88;;
78324;SDS011;67584;51.400;6.692;2023-09-19T13:52:18;5.70;;;2.17;;
78324;SDS011;67584;51.400;6.692;2023-09-19T13:54:45;5.25;;;1.98;;
78324;SDS011;67584;51.400;6.692;2023-09-19T13:57:10;4.65;;;1.90;;
78324;SDS011;67584;51.400;6.692;2023-09-19T13:59:36;3.65;;;1.77;;
78324;SDS011;67584;51.400;6.692;2023-09-19T14:02:02;5.45;;;2.13;;
78324;SDS011;67584;51.400;6.692;2023-09-19T14:04:28;2.88;;;1.60;;
78324;SDS011;67584;51.400;6.692;2023-09-19T14:06:56;4.18;;;1.80;;
78324;SDS011;67584;51.400;6.692;2023-09-19T14:09:23;3.22;;;1.90;;
78324;SDS011;67584;51.400;6.692;2023-09-19T14:11:50;3.33;;;1.50;;
78324;SDS011;67584;51.400;6.692;2023-09-19T14:14:18;4.10;;;2.13;;
78324;SDS011;67584;51.400;6.692;2023-09-19T14:16:44;4.82;;;1.67;;
78324;SDS011;67584;51.400;6.692;2023-09-19T14:19:10;4.63;;;1.50;;
78324;SDS011;67584;51.400;6.692;2023-09-19T14:21:40;4.00;;;1.40;;
78324;SDS011;67584;51.400;6.692;2023-09-19T14:24:06;3.22;;;1.60;;
78324;SDS011;67584;51.400;6.692;2023-09-19T14:26:40;3.63;;;1.92;;
78324;SDS011;67584;51.400;6.692;2023-09-19T14:29:06;1.90;;;1.55;;
78324;SDS011;67584;51.400;6.692;2023-09-19T14:31:32;4.03;;;1.92;;
78324;SDS011;67584;51.400;6.692;2023-09-19T14:33:58;2.72;;;1.35;;
78324;SDS011;67584;51.400;6.692;2023-09-19T14:36:24;2.47;;;1.60;;
78324;SDS011;67584;51.400;6.692;2023-09-19T14:38:55;4.07;;;1.83;;
78324;SDS011;67584;51.400;6.692;2023-09-19T14:41:22;2.70;;;1.40;;
78324;SDS011;67584;51.400;6.692;2023-09-19T14:43:50;2.80;;;1.30;;
78324;SDS011;67584;51.400;6.692;2023-09-19T14:46:16;2.90;;;1.75;;
78324;SDS011;67584;51.400;6.692;2023-09-19T14:48:44;2.38;;;1.80;;
78324;SDS011;67584;51.400;6.692;2023-09-19T14:53:38;2.30;;;1.30;;
78324;SDS011;67584;51.400;6.692;2023-09-19T14:56:08;1.75;;;1.30;;
78324;SDS011;67584;51.400;6.692;2023-09-19T14:58:34;1.92;;;1.10;;
78324;SDS011;67584;51.400;6.692;2023-09-19T15:01:04;2.35;;;1.40;;
78324;SDS011;67584;51.400;6.692;2023-09-19T15:03:35;3.40;;;1.55;;
78324;SDS011;67584;51.400;6.692;2023-09-19T15:06:02;2.75;;;1.30;;
78324;SDS011;67584;51.400;6.692;2023-09-19T15:08:34;2.08;;;1.42;;
78324;SDS011;67584;51.400;6.692;2023-09-19T15:11:05;3.17;;;1.70;;
78324;SDS011;67584;51.400;6.692;2023-09-19T15:13:35;4.07;;;1.33;;
78324;SDS011;67584;51.400;6.692;2023-09-19T15:16:02;4.70;;;1.40;;
78324;SDS011;67584;51.400;6.692;2023-09-19T15:18:29;4.28;;;1.52;;
78324;SDS011;67584;51.400;6.692;2023-09-19T15:21:02;2.50;;;1.30;;
78324;SDS011;67584;51.400;6.692;2023-09-19T15:23:38;1.67;;;1.10;;
78324;SDS011;67584;51.400;6.692;2023-09-19T15:26:05;2.13;;;1.33;;
78324;SDS011;67584;51.400;6.692;2023-09-19T15:28:32;2.92;;;1.48;;
78324;SDS011;67584;51.400;6.692;2023-09-19T15:30:59;4.25;;;1.50;;
78324;SDS011;67584;51.400;6.692;2023-09-19T15:33:26;2.30;;;1.98;;
78324;SDS011;67584;51.400;6.692;2023-09-19T15:36:00;1.65;;;1.00;;
78324;SDS011;67584;51.400;6.692;2023-09-19T15:38:32;2.05;;;1.23;;
78324;SDS011;67584;51.400;6.692;2023-09-19T15:41:36;2.42;;;1.25;;
78324;SDS011;67584;51.400;6.692;2023-09-19T15:44:16;2.70;;;1.30;;
78324;SDS011;67584;51.400;6.692;2023-09-19T15:46:44;3.33;;;1.30;;
78324;SDS011;67584;51.400;6.692;2023-09-19T15:49:09;4.65;;;1.40;;
78324;SDS011;67584;51.400;6.692;2023-09-19T15:51:36;2.42;;;1.75;;
78324;SDS011;67584;51.400;6.692;2023-09-19T15:54:06;5.38;;;1.50;;
78324;SDS011;67584;51.400;6.692;2023-09-19T15:56:33;3.05;;;1.33;;